sensor_id;sensor_type;location;lat;lon;timestamp;pressure;altitude;pressure_sealevel;temperature;humidity
50710;BME280;37033;49.994;21.992;2023-05-25T00:01:07;99637.66;;;13.00;80.94
50710;BME280;37033;49.994;21.992;2023-05-25T00:03:37;99640.62;;;13.01;81.18
50710;BME280;37033;49.994;21.992;2023-05-25T00:06:08;99638.52;;;12.99;81.09
50710;BME280;37033;49.994;21.992;2023-05-25T00:08:40;99634.21;;;13.00;81.21
50710;BME280;37033;49.994;21.992;2023-05-25T00:11:11;99633.20;;;13.01;81.26
50710;BME280;37033;49.994;21.992;2023-05-25T00:13:42;99632.41;;;12.99;81.34
50710;BME280;37033;49.994;21.992;2023-05-25T00:16:13;99633.02;;;13.00;81.16
50710;BME280;37033;49.994;21.992;2023-05-25T00:18:44;99635.73;;;13.02;81.36
50710;BME280;37033;49.994;21.992;2023-05-25T00:21:16;99636.48;;;13.01;81.31
50710;BME280;37033;49.994;21.992;2023-05-25T00:23:48;99639.20;;;13.01;81.50
50710;BME280;37033;49.994;21.992;2023-05-25T00:26:19;99639.15;;;13.01;81.49
50710;BME280;37033;49.994;21.992;2023-05-25T00:28:49;99634.95;;;13.01;81.40
50710;BME280;37033;49.994;21.992;2023-05-25T00:31:20;99642.35;;;13.04;81.54
50710;BME280;37033;49.994;21.992;2023-05-25T00:33:50;99640.50;;;13.04;81.47
50710;BME280;37033;49.994;21.992;2023-05-25T00:36:21;99648.86;;;13.05;81.91
50710;BME280;37033;49.994;21.992;2023-05-25T00:38:52;99651.47;;;13.03;81.79
50710;BME280;37033;49.994;21.992;2023-05-25T00:41:22;99648.86;;;13.04;81.92
50710;BME280;37033;49.994;21.992;2023-05-25T00:43:54;99650.11;;;13.04;81.94
50710;BME280;37033;49.994;21.992;2023-05-25T00:46:25;99646.30;;;13.05;82.23
50710;BME280;37033;49.994;21.992;2023-05-25T00:48:57;99650.38;;;13.03;82.36
50710;BME280;37033;49.994;21.992;2023-05-25T00:51:28;99643.59;;;13.02;82.29
50710;BME280;37033;49.994;21.992;2023-05-25T00:54:01;99643.69;;;13.04;82.15
50710;BME280;37033;49.994;21.992;2023-05-25T00:56:34;99642.00;;;13.06;82.29
50710;BME280;37033;49.994;21.992;2023-05-25T00:59:08;99638.41;;;13.07;82.32
50710;BME280;37033;49.994;21.992;2023-05-25T01:01:40;99639.02;;;13.07;82.05
50710;BME280;37033;49.994;21.992;2023-05-25T01:04:14;99643.96;;;13.09;82.07
50710;BME280;37033;49.994;21.992;2023-05-25T01:06:48;99647.98;;;13.11;82.07
50710;BME280;37033;49.994;21.992;2023-05-25T01:09:22;99645.90;;;13.12;82.50
50710;BME280;37033;49.994;21.992;2023-05-25T01:11:54;99644.55;;;13.12;82.46
50710;BME280;37033;49.994;21.992;2023-05-25T01:14:26;99640.25;;;13.13;82.54
50710;BME280;37033;49.994;21.992;2023-05-25T01:16:57;99645.61;;;13.14;82.50
50710;BME280;37033;49.994;21.992;2023-05-25T01:19:28;99644.17;;;13.14;82.50
50710;BME280;37033;49.994;21.992;2023-05-25T01:22:06;99650.30;;;13.14;82.41
50710;BME280;37033;49.994;21.992;2023-05-25T01:24:45;99647.67;;;13.13;82.38
50710;BME280;37033;49.994;21.992;2023-05-25T01:27:24;99650.91;;;13.15;82.55
50710;BME280;37033;49.994;21.992;2023-05-25T01:29:58;99647.27;;;13.16;82.66
50710;BME280;37033;49.994;21.992;2023-05-25T01:32:31;99640.65;;;13.15;82.69
50710;BME280;37033;49.994;21.992;2023-05-25T01:35:04;99639.11;;;13.14;82.73
50710;BME280;37033;49.994;21.992;2023-05-25T01:37:37;99636.62;;;13.15;82.57
50710;BME280;37033;49.994;21.992;2023-05-25T01:40:11;99638.42;;;13.15;82.85
50710;BME280;37033;49.994;21.992;2023-05-25T01:42:42;99638.73;;;13.14;82.94
50710;BME280;37033;49.994;21.992;2023-05-25T01:45:14;99636.43;;;13.14;82.90
50710;BME280;37033;49.994;21.992;2023-05-25T01:47:47;99638.95;;;13.14;83.12
50710;BME280;37033;49.994;21.992;2023-05-25T01:50:25;99634.20;;;13.14;83.07
50710;BME280;37033;49.994;21.992;2023-05-25T01:53:03;99633.03;;;13.13;82.89
50710;BME280;37033;49.994;21.992;2023-05-25T01:55:38;99632.45;;;13.14;83.03
50710;BME280;37033;49.994;21.992;2023-05-25T01:58:14;99631.20;;;13.14;83.21
50710;BME280;37033;49.994;21.992;2023-05-25T02:00:45;99634.57;;;13.13;83.03
50710;BME280;37033;49.994;21.992;2023-05-25T02:03:16;99631.02;;;13.13;83.25
50710;BME280;37033;49.994;21.992;2023-05-25T02:05:48;99633.73;;;13.12;83.39
50710;BME280;37033;49.994;21.992;2023-05-25T02:08:19;99633.94;;;13.10;83.58
50710;BME280;37033;49.994;21.992;2023-05-25T02:10:50;99632.82;;;13.10;83.76
50710;BME280;37033;49.994;21.992;2023-05-25T02:13:20;99631.08;;;13.09;83.36
50710;BME280;37033;49.994;21.992;2023-05-25T02:15:51;99631.52;;;13.10;83.59
50710;BME280;37033;49.994;21.992;2023-05-25T02:18:22;99635.50;;;13.10;83.62
50710;BME280;37033;49.994;21.992;2023-05-25T02:20:52;99633.70;;;13.09;83.41
50710;BME280;37033;49.994;21.992;2023-05-25T02:23:23;99636.30;;;13.08;83.77
50710;BME280;37033;49.994;21.992;2023-05-25T02:25:53;99639.05;;;13.06;83.89
50710;BME280;37033;49.994;21.992;2023-05-25T02:28:24;99642.70;;;13.05;83.72
50710;BME280;37033;49.994;21.992;2023-05-25T02:30:55;99639.27;;;13.06;83.86
50710;BME280;37033;49.994;21.992;2023-05-25T02:33:25;99646.02;;;13.04;83.77
50710;BME280;37033;49.994;21.992;2023-05-25T02:35:56;99645.40;;;13.03;83.71
50710;BME280;37033;49.994;21.992;2023-05-25T02:38:27;99647.20;;;13.03;83.63
50710;BME280;37033;49.994;21.992;2023-05-25T02:40:57;99650.28;;;13.04;83.64
50710;BME280;37033;49.994;21.992;2023-05-25T02:43:28;99646.30;;;13.04;83.50
50710;BME280;37033;49.994;21.992;2023-05-25T02:45:59;99647.99;;;13.05;83.42
50710;BME280;37033;49.994;21.992;2023-05-25T02:48:29;99646.90;;;13.05;83.53
50710;BME280;37033;49.994;21.992;2023-05-25T02:51:00;99649.63;;;13.04;83.50
50710;BME280;37033;49.994;21.992;2023-05-25T02:53:31;99649.92;;;13.03;83.76
50710;BME280;37033;49.994;21.992;2023-05-25T02:56:01;99650.22;;;13.00;83.54
50710;BME280;37033;49.994;21.992;2023-05-25T02:58:33;99652.08;;;12.96;83.69
50710;BME280;37033;49.994;21.992;2023-05-25T03:01:04;99647.05;;;12.96;83.77
50710;BME280;37033;49.994;21.992;2023-05-25T03:03:38;99653.64;;;12.95;83.74
50710;BME280;37033;49.994;21.992;2023-05-25T03:06:09;99651.21;;;12.94;83.66
50710;BME280;37033;49.994;21.992;2023-05-25T03:08:41;99652.22;;;12.92;83.72
50710;BME280;37033;49.994;21.992;2023-05-25T03:11:11;99656.90;;;12.90;83.50
50710;BME280;37033;49.994;21.992;2023-05-25T03:13:42;99658.80;;;12.90;83.53
50710;BME280;37033;49.994;21.992;2023-05-25T03:16:12;99661.73;;;12.90;83.49
50710;BME280;37033;49.994;21.992;2023-05-25T03:18:43;99661.75;;;12.90;83.29
50710;BME280;37033;49.994;21.992;2023-05-25T03:21:14;99662.42;;;12.91;83.45
50710;BME280;37033;49.994;21.992;2023-05-25T03:23:44;99667.34;;;12.91;83.48
50710;BME280;37033;49.994;21.992;2023-05-25T03:26:15;99673.33;;;12.91;83.18
50710;BME280;37033;49.994;21.992;2023-05-25T03:28:45;99670.16;;;12.92;83.29
50710;BME280;37033;49.994;21.992;2023-05-25T03:31:16;99672.85;;;12.92;83.45
50710;BME280;37033;49.994;21.992;2023-05-25T03:33:47;99676.75;;;12.90;83.33
50710;BME280;37033;49.994;21.992;2023-05-25T03:36:17;99681.95;;;12.91;83.26
50710;BME280;37033;49.994;21.992;2023-05-25T03:38:48;99684.25;;;12.91;83.37
50710;BME280;37033;49.994;21.992;2023-05-25T03:41:18;99687.08;;;12.91;83.32
50710;BME280;37033;49.994;21.992;2023-05-25T03:43:50;99681.49;;;12.90;83.44
50710;BME280;37033;49.994;21.992;2023-05-25T03:46:20;99675.70;;;12.90;83.43
50710;BME280;37033;49.994;21.992;2023-05-25T03:48:51;99675.12;;;12.90;83.21
50710;BME280;37033;49.994;21.992;2023-05-25T03:51:21;99673.92;;;12.91;83.25
50710;BME280;37033;49.994;21.992;2023-05-25T03:53:52;99675.52;;;12.92;83.25
50710;BME280;37033;49.994;21.992;2023-05-25T03:56:23;99678.93;;;12.94;83.37
50710;BME280;37033;49.994;21.992;2023-05-25T03:58:54;99681.56;;;12.94;83.27
50710;BME280;37033;49.994;21.992;2023-05-25T04:01:25;99688.15;;;12.93;83.10
50710;BME280;37033;49.994;21.992;2023-05-25T04:03:58;99692.90;;;12.94;83.13
50710;BME280;37033;49.994;21.992;2023-05-25T04:06:28;99697.53;;;12.97;83.32
50710;BME280;37033;49.994;21.992;2023-05-25T04:08:59;99696.15;;;12.95;83.30
50710;BME280;37033;49.994;21.992;2023-05-25T04:11:29;99698.80;;;12.93;83.31
50710;BME280;37033;49.994;21.992;2023-05-25T04:14:00;99706.00;;;12.94;83.33
50710;BME280;37033;49.994;21.992;2023-05-25T04:16:31;99709.00;;;12.93;83.40
50710;BME280;37033;49.994;21.992;2023-05-25T04:19:01;99711.33;;;12.94;83.31
50710;BME280;37033;49.994;21.992;2023-05-25T04:21:32;99717.41;;;12.97;83.29
50710;BME280;37033;49.994;21.992;2023-05-25T04:24:03;99720.73;;;13.00;83.48
50710;BME280;37033;49.994;21.992;2023-05-25T04:26:33;99718.52;;;12.98;83.56
50710;BME280;37033;49.994;21.992;2023-05-25T04:29:04;99719.34;;;12.95;83.51
50710;BME280;37033;49.994;21.992;2023-05-25T04:31:35;99714.26;;;12.94;83.64
50710;BME280;37033;49.994;21.992;2023-05-25T04:34:07;99712.14;;;12.95;83.85
50710;BME280;37033;49.994;21.992;2023-05-25T04:36:38;99714.71;;;12.95;83.86
50710;BME280;37033;49.994;21.992;2023-05-25T04:39:11;99711.84;;;12.94;83.78
50710;BME280;37033;49.994;21.992;2023-05-25T04:41:41;99715.69;;;12.95;83.86
50710;BME280;37033;49.994;21.992;2023-05-25T04:44:12;99708.93;;;12.96;83.71
50710;BME280;37033;49.994;21.992;2023-05-25T04:46:43;99711.02;;;12.96;83.97
50710;BME280;37033;49.994;21.992;2023-05-25T04:49:13;99708.89;;;12.96;83.95
50710;BME280;37033;49.994;21.992;2023-05-25T04:51:45;99710.98;;;12.94;84.10
50710;BME280;37033;49.994;21.992;2023-05-25T04:54:15;99712.69;;;12.93;84.37
50710;BME280;37033;49.994;21.992;2023-05-25T04:56:46;99711.20;;;12.92;84.49
50710;BME280;37033;49.994;21.992;2023-05-25T04:59:16;99711.59;;;12.92;84.66
50710;BME280;37033;49.994;21.992;2023-05-25T05:01:47;99719.99;;;12.92;84.89
50710;BME280;37033;49.994;21.992;2023-05-25T05:04:18;99717.81;;;12.92;85.01
50710;BME280;37033;49.994;21.992;2023-05-25T05:06:48;99721.20;;;12.92;84.70
50710;BME280;37033;49.994;21.992;2023-05-25T05:09:19;99719.92;;;12.94;84.84
50710;BME280;37033;49.994;21.992;2023-05-25T05:11:50;99718.23;;;12.94;84.93
50710;BME280;37033;49.994;21.992;2023-05-25T05:14:20;99718.46;;;12.94;84.87
50710;BME280;37033;49.994;21.992;2023-05-25T05:16:51;99720.48;;;12.99;84.97
50710;BME280;37033;49.994;21.992;2023-05-25T05:19:22;99720.81;;;13.02;84.87
50710;BME280;37033;49.994;21.992;2023-05-25T05:21:52;99729.30;;;13.07;84.78
50710;BME280;37033;49.994;21.992;2023-05-25T05:24:23;99729.52;;;13.08;84.69
50710;BME280;37033;49.994;21.992;2023-05-25T05:26:54;99735.16;;;13.09;84.94
50710;BME280;37033;49.994;21.992;2023-05-25T05:29:24;99734.36;;;13.09;84.86
50710;BME280;37033;49.994;21.992;2023-05-25T05:31:56;99734.13;;;13.13;84.73
50710;BME280;37033;49.994;21.992;2023-05-25T05:34:27;99739.17;;;13.13;84.63
50710;BME280;37033;49.994;21.992;2023-05-25T05:36:58;99739.00;;;13.14;84.46
50710;BME280;37033;49.994;21.992;2023-05-25T05:39:29;99739.42;;;13.15;84.52
50710;BME280;37033;49.994;21.992;2023-05-25T05:41:59;99740.64;;;13.17;84.43
50710;BME280;37033;49.994;21.992;2023-05-25T05:44:30;99734.47;;;13.21;84.54
50710;BME280;37033;49.994;21.992;2023-05-25T05:47:01;99739.06;;;13.24;84.36
50710;BME280;37033;49.994;21.992;2023-05-25T05:49:32;99740.73;;;13.28;84.34
50710;BME280;37033;49.994;21.992;2023-05-25T05:52:04;99742.66;;;13.28;84.39
50710;BME280;37033;49.994;21.992;2023-05-25T05:54:35;99747.77;;;13.32;84.26
50710;BME280;37033;49.994;21.992;2023-05-25T05:57:05;99746.40;;;13.35;84.17
50710;BME280;37033;49.994;21.992;2023-05-25T05:59:36;99749.05;;;13.41;84.03
50710;BME280;37033;49.994;21.992;2023-05-25T06:02:07;99748.30;;;13.42;83.88
50710;BME280;37033;49.994;21.992;2023-05-25T06:04:37;99751.38;;;13.47;83.79
50710;BME280;37033;49.994;21.992;2023-05-25T06:07:08;99755.50;;;13.54;83.72
50710;BME280;37033;49.994;21.992;2023-05-25T06:09:38;99758.70;;;13.60;83.59
50710;BME280;37033;49.994;21.992;2023-05-25T06:12:10;99763.92;;;13.65;83.19
50710;BME280;37033;49.994;21.992;2023-05-25T06:14:40;99765.63;;;13.63;83.10
50710;BME280;37033;49.994;21.992;2023-05-25T06:17:11;99768.89;;;13.66;83.05
50710;BME280;37033;49.994;21.992;2023-05-25T06:19:42;99773.20;;;13.65;83.03
50710;BME280;37033;49.994;21.992;2023-05-25T06:22:12;99770.88;;;13.67;83.05
50710;BME280;37033;49.994;21.992;2023-05-25T06:24:43;99774.22;;;13.65;82.89
50710;BME280;37033;49.994;21.992;2023-05-25T06:27:13;99775.81;;;13.60;82.97
50710;BME280;37033;49.994;21.992;2023-05-25T06:29:45;99777.78;;;13.57;82.96
50710;BME280;37033;49.994;21.992;2023-05-25T06:32:16;99780.86;;;13.58;82.93
50710;BME280;37033;49.994;21.992;2023-05-25T06:34:46;99783.77;;;13.58;83.02
50710;BME280;37033;49.994;21.992;2023-05-25T06:37:17;99782.20;;;13.57;82.97
50710;BME280;37033;49.994;21.992;2023-05-25T06:39:48;99785.95;;;13.57;83.05
50710;BME280;37033;49.994;21.992;2023-05-25T06:42:18;99789.09;;;13.60;82.96
50710;BME280;37033;49.994;21.992;2023-05-25T06:44:49;99781.14;;;13.62;82.84
50710;BME280;37033;49.994;21.992;2023-05-25T06:47:19;99785.02;;;13.62;83.06
50710;BME280;37033;49.994;21.992;2023-05-25T06:49:50;99786.84;;;13.63;83.10
50710;BME280;37033;49.994;21.992;2023-05-25T06:52:21;99789.10;;;13.65;82.97
50710;BME280;37033;49.994;21.992;2023-05-25T06:54:51;99793.16;;;13.66;82.93
50710;BME280;37033;49.994;21.992;2023-05-25T06:57:22;99793.30;;;13.65;82.85
50710;BME280;37033;49.994;21.992;2023-05-25T06:59:53;99799.38;;;13.62;82.92
50710;BME280;37033;49.994;21.992;2023-05-25T07:02:23;99800.55;;;13.64;82.99
50710;BME280;37033;49.994;21.992;2023-05-25T07:04:54;99800.04;;;13.66;83.07
50710;BME280;37033;49.994;21.992;2023-05-25T07:07:25;99803.77;;;13.63;83.09
50710;BME280;37033;49.994;21.992;2023-05-25T07:09:55;99796.75;;;13.61;83.23
50710;BME280;37033;49.994;21.992;2023-05-25T07:12:26;99797.95;;;13.60;83.15
50710;BME280;37033;49.994;21.992;2023-05-25T07:14:57;99800.00;;;13.59;83.18
50710;BME280;37033;49.994;21.992;2023-05-25T07:17:28;99799.13;;;13.60;83.23
50710;BME280;37033;49.994;21.992;2023-05-25T07:19:59;99797.41;;;13.62;83.37
50710;BME280;37033;49.994;21.992;2023-05-25T07:22:30;99800.34;;;13.60;83.26
50710;BME280;37033;49.994;21.992;2023-05-25T07:25:00;99803.11;;;13.59;83.25
50710;BME280;37033;49.994;21.992;2023-05-25T07:27:31;99807.25;;;13.61;83.40
50710;BME280;37033;49.994;21.992;2023-05-25T07:30:02;99808.55;;;13.66;83.43
50710;BME280;37033;49.994;21.992;2023-05-25T07:32:33;99810.73;;;13.70;83.28
50710;BME280;37033;49.994;21.992;2023-05-25T07:35:05;99811.16;;;13.72;83.33
50710;BME280;37033;49.994;21.992;2023-05-25T07:37:35;99816.02;;;13.72;83.22
50710;BME280;37033;49.994;21.992;2023-05-25T07:40:07;99819.69;;;13.73;83.19
50710;BME280;37033;49.994;21.992;2023-05-25T07:42:39;99819.28;;;13.74;83.42
50710;BME280;37033;49.994;21.992;2023-05-25T07:45:11;99817.92;;;13.74;83.25
50710;BME280;37033;49.994;21.992;2023-05-25T07:47:41;99817.19;;;13.78;83.36
50710;BME280;37033;49.994;21.992;2023-05-25T07:50:12;99817.96;;;13.81;83.23
50710;BME280;37033;49.994;21.992;2023-05-25T07:52:43;99817.23;;;13.84;83.11
50710;BME280;37033;49.994;21.992;2023-05-25T07:55:14;99817.23;;;13.88;83.06
50710;BME280;37033;49.994;21.992;2023-05-25T07:57:44;99812.51;;;13.91;83.09
50710;BME280;37033;49.994;21.992;2023-05-25T08:00:16;99815.32;;;13.96;83.09
50710;BME280;37033;49.994;21.992;2023-05-25T08:02:47;99821.30;;;14.03;82.75
50710;BME280;37033;49.994;21.992;2023-05-25T08:05:18;99814.98;;;14.09;82.63
50710;BME280;37033;49.994;21.992;2023-05-25T08:07:49;99817.66;;;14.14;82.58
50710;BME280;37033;49.994;21.992;2023-05-25T08:10:19;99815.42;;;14.18;82.24
50710;BME280;37033;49.994;21.992;2023-05-25T08:12:50;99816.68;;;14.23;82.33
50710;BME280;37033;49.994;21.992;2023-05-25T08:15:20;99816.27;;;14.25;82.12
50710;BME280;37033;49.994;21.992;2023-05-25T08:17:51;99817.60;;;14.26;81.92
50710;BME280;37033;49.994;21.992;2023-05-25T08:20:21;99822.89;;;14.31;81.94
50710;BME280;37033;49.994;21.992;2023-05-25T08:22:53;99826.69;;;14.36;81.93
50710;BME280;37033;49.994;21.992;2023-05-25T08:25:24;99826.67;;;14.41;81.58
50710;BME280;37033;49.994;21.992;2023-05-25T08:27:54;99826.20;;;14.41;81.53
50710;BME280;37033;49.994;21.992;2023-05-25T08:30:25;99828.34;;;14.46;81.42
50710;BME280;37033;49.994;21.992;2023-05-25T08:32:56;99828.23;;;14.46;81.29
50710;BME280;37033;49.994;21.992;2023-05-25T08:35:27;99827.37;;;14.49;81.19
50710;BME280;37033;49.994;21.992;2023-05-25T08:37:57;99824.54;;;14.55;81.20
50710;BME280;37033;49.994;21.992;2023-05-25T08:40:29;99826.40;;;14.62;81.14
50710;BME280;37033;49.994;21.992;2023-05-25T08:43:00;99830.32;;;14.70;81.03
50710;BME280;37033;49.994;21.992;2023-05-25T08:45:30;99830.94;;;14.79;80.71
50710;BME280;37033;49.994;21.992;2023-05-25T08:48:02;99832.89;;;14.87;80.59
50710;BME280;37033;49.994;21.992;2023-05-25T08:50:34;99836.06;;;14.94;80.38
50710;BME280;37033;49.994;21.992;2023-05-25T08:53:05;99837.02;;;15.02;80.12
50710;BME280;37033;49.994;21.992;2023-05-25T08:55:39;99840.42;;;15.07;79.93
50710;BME280;37033;49.994;21.992;2023-05-25T08:58:15;99840.84;;;15.12;79.60
50710;BME280;37033;49.994;21.992;2023-05-25T09:00:52;99838.55;;;15.13;79.39
50710;BME280;37033;49.994;21.992;2023-05-25T09:03:24;99840.16;;;15.15;79.47
50710;BME280;37033;49.994;21.992;2023-05-25T09:05:56;99837.93;;;15.18;79.45
50710;BME280;37033;49.994;21.992;2023-05-25T09:08:27;99840.60;;;15.22;79.19
50710;BME280;37033;49.994;21.992;2023-05-25T09:10:58;99837.98;;;15.25;79.21
50710;BME280;37033;49.994;21.992;2023-05-25T09:13:30;99837.80;;;15.28;79.13
50710;BME280;37033;49.994;21.992;2023-05-25T09:16:01;99833.68;;;15.34;79.16
50710;BME280;37033;49.994;21.992;2023-05-25T09:18:32;99836.56;;;15.38;79.10
50710;BME280;37033;49.994;21.992;2023-05-25T09:21:03;99837.14;;;15.42;78.90
50710;BME280;37033;49.994;21.992;2023-05-25T09:23:34;99834.93;;;15.47;78.87
50710;BME280;37033;49.994;21.992;2023-05-25T09:26:06;99834.47;;;15.52;78.48
50710;BME280;37033;49.994;21.992;2023-05-25T09:28:45;99830.51;;;15.55;78.52
50710;BME280;37033;49.994;21.992;2023-05-25T09:31:16;99832.39;;;15.59;78.50
50710;BME280;37033;49.994;21.992;2023-05-25T09:33:47;99837.91;;;15.66;78.28
50710;BME280;37033;49.994;21.992;2023-05-25T09:36:18;99843.20;;;15.71;78.27
50710;BME280;37033;49.994;21.992;2023-05-25T09:38:50;99843.27;;;15.75;78.18
50710;BME280;37033;49.994;21.992;2023-05-25T09:41:21;99849.91;;;15.78;77.90
50710;BME280;37033;49.994;21.992;2023-05-25T09:43:55;99843.89;;;15.79;77.55
50710;BME280;37033;49.994;21.992;2023-05-25T09:46:27;99845.16;;;15.79;77.59
50710;BME280;37033;49.994;21.992;2023-05-25T09:49:00;99845.77;;;15.79;77.36
50710;BME280;37033;49.994;21.992;2023-05-25T09:51:32;99848.17;;;15.78;77.28
50710;BME280;37033;49.994;21.992;2023-05-25T09:54:04;99852.34;;;15.78;77.10
50710;BME280;37033;49.994;21.992;2023-05-25T09:56:38;99850.53;;;15.81;77.28
50710;BME280;37033;49.994;21.992;2023-05-25T09:59:09;99848.99;;;15.89;77.39
50710;BME280;37033;49.994;21.992;2023-05-25T10:01:41;99847.91;;;16.00;77.31
50710;BME280;37033;49.994;21.992;2023-05-25T10:04:16;99847.08;;;16.10;77.22
50710;BME280;37033;49.994;21.992;2023-05-25T10:06:48;99849.38;;;16.21;76.80
50710;BME280;37033;49.994;21.992;2023-05-25T10:09:20;99849.52;;;16.28;76.01
50710;BME280;37033;49.994;21.992;2023-05-25T10:11:52;99851.82;;;16.28;75.85
50710;BME280;37033;49.994;21.992;2023-05-25T10:14:26;99846.08;;;16.32;75.98
50710;BME280;37033;49.994;21.992;2023-05-25T10:16:58;99846.52;;;16.33;76.08
50710;BME280;37033;49.994;21.992;2023-05-25T10:19:37;99845.40;;;16.41;76.07
50710;BME280;37033;49.994;21.992;2023-05-25T10:22:18;99846.02;;;16.47;75.84
50710;BME280;37033;49.994;21.992;2023-05-25T10:24:55;99843.45;;;16.52;75.69
50710;BME280;37033;49.994;21.992;2023-05-25T10:27:31;99837.52;;;16.55;75.74
50710;BME280;37033;49.994;21.992;2023-05-25T10:30:04;99838.77;;;16.63;75.80
50710;BME280;37033;49.994;21.992;2023-05-25T10:32:37;99837.85;;;16.72;75.57
50710;BME280;37033;49.994;21.992;2023-05-25T10:35:09;99838.69;;;16.76;75.20
50710;BME280;37033;49.994;21.992;2023-05-25T10:37:40;99836.45;;;16.77;74.98
50710;BME280;37033;49.994;21.992;2023-05-25T10:40:12;99835.57;;;16.77;75.09
50710;BME280;37033;49.994;21.992;2023-05-25T10:42:45;99829.80;;;16.77;75.05
50710;BME280;37033;49.994;21.992;2023-05-25T10:45:16;99829.08;;;16.82;74.85
50710;BME280;37033;49.994;21.992;2023-05-25T10:47:47;99824.19;;;16.88;74.86
50710;BME280;37033;49.994;21.992;2023-05-25T10:50:23;99822.88;;;16.96;74.55
50710;BME280;37033;49.994;21.992;2023-05-25T10:53:03;99820.69;;;17.03;74.12
50710;BME280;37033;49.994;21.992;2023-05-25T10:55:48;99822.45;;;17.06;74.45
50710;BME280;37033;49.994;21.992;2023-05-25T10:58:30;99823.17;;;17.12;74.00
50710;BME280;37033;49.994;21.992;2023-05-25T11:01:05;99826.25;;;17.12;73.72
50710;BME280;37033;49.994;21.992;2023-05-25T11:03:55;99825.64;;;17.05;73.37
50710;BME280;37033;49.994;21.992;2023-05-25T11:09:30;99820.64;;;17.13;73.59
50710;BME280;37033;49.994;21.992;2023-05-25T11:12:07;99818.34;;;17.20;73.34
50710;BME280;37033;49.994;21.992;2023-05-25T11:14:38;99814.92;;;17.28;73.17
50710;BME280;37033;49.994;21.992;2023-05-25T11:17:13;99812.23;;;17.40;72.99
50710;BME280;37033;49.994;21.992;2023-05-25T11:19:44;99811.23;;;17.48;72.28
50710;BME280;37033;49.994;21.992;2023-05-25T11:22:17;99811.98;;;17.49;71.95
50710;BME280;37033;49.994;21.992;2023-05-25T11:24:49;99813.14;;;17.49;71.84
50710;BME280;37033;49.994;21.992;2023-05-25T11:27:23;99808.52;;;17.55;71.69
50710;BME280;37033;49.994;21.992;2023-05-25T11:29:57;99803.84;;;17.63;71.68
50710;BME280;37033;49.994;21.992;2023-05-25T11:32:28;99802.88;;;17.73;71.81
50710;BME280;37033;49.994;21.992;2023-05-25T11:34:59;99806.55;;;17.86;71.56
50710;BME280;37033;49.994;21.992;2023-05-25T11:37:29;99805.71;;;17.94;70.86
50710;BME280;37033;49.994;21.992;2023-05-25T11:40:07;99807.34;;;18.01;70.91
50710;BME280;37033;49.994;21.992;2023-05-25T11:42:40;99804.50;;;18.09;70.89
50710;BME280;37033;49.994;21.992;2023-05-25T11:45:18;99803.14;;;18.16;70.76
50710;BME280;37033;49.994;21.992;2023-05-25T11:47:51;99804.08;;;18.17;70.01
50710;BME280;37033;49.994;21.992;2023-05-25T11:50:21;99801.77;;;18.14;70.04
50710;BME280;37033;49.994;21.992;2023-05-25T11:52:52;99805.44;;;18.09;69.15
50710;BME280;37033;49.994;21.992;2023-05-25T11:55:23;99801.00;;;18.02;69.38
50710;BME280;37033;49.994;21.992;2023-05-25T11:57:57;99802.77;;;18.01;69.55
50710;BME280;37033;49.994;21.992;2023-05-25T12:00:28;99797.48;;;18.04;69.70
50710;BME280;37033;49.994;21.992;2023-05-25T12:02:59;99798.01;;;18.06;69.35
50710;BME280;37033;49.994;21.992;2023-05-25T12:05:38;99801.09;;;18.07;69.74
50710;BME280;37033;49.994;21.992;2023-05-25T12:08:09;99796.68;;;18.10;69.55
50710;BME280;37033;49.994;21.992;2023-05-25T12:10:51;99798.30;;;18.19;69.39
50710;BME280;37033;49.994;21.992;2023-05-25T12:13:22;99793.02;;;18.18;69.35
50710;BME280;37033;49.994;21.992;2023-05-25T12:15:56;99790.27;;;18.18;69.33
50710;BME280;37033;49.994;21.992;2023-05-25T12:18:28;99790.94;;;18.16;69.49
50710;BME280;37033;49.994;21.992;2023-05-25T12:20:59;99791.16;;;18.15;69.67
50710;BME280;37033;49.994;21.992;2023-05-25T12:23:30;99788.22;;;18.20;69.39
50710;BME280;37033;49.994;21.992;2023-05-25T12:26:14;99786.27;;;18.24;69.01
50710;BME280;37033;49.994;21.992;2023-05-25T12:28:59;99787.32;;;18.23;68.76
50710;BME280;37033;49.994;21.992;2023-05-25T12:31:31;99782.89;;;18.19;68.78
50710;BME280;37033;49.994;21.992;2023-05-25T12:34:06;99785.41;;;18.18;68.87
50710;BME280;37033;49.994;21.992;2023-05-25T12:36:41;99781.69;;;18.18;68.90
50710;BME280;37033;49.994;21.992;2023-05-25T12:39:14;99777.83;;;18.15;68.83
50710;BME280;37033;49.994;21.992;2023-05-25T12:41:49;99775.21;;;18.13;68.63
50710;BME280;37033;49.994;21.992;2023-05-25T12:44:22;99771.55;;;18.08;68.75
50710;BME280;37033;49.994;21.992;2023-05-25T12:46:54;99768.52;;;18.10;68.80
50710;BME280;37033;49.994;21.992;2023-05-25T12:49:26;99768.09;;;18.09;68.84
50710;BME280;37033;49.994;21.992;2023-05-25T12:51:58;99762.02;;;18.08;68.64
50710;BME280;37033;49.994;21.992;2023-05-25T12:54:37;99759.49;;;18.07;68.89
50710;BME280;37033;49.994;21.992;2023-05-25T12:57:10;99759.22;;;18.08;68.94
50710;BME280;37033;49.994;21.992;2023-05-25T12:59:42;99760.65;;;18.08;68.88
50710;BME280;37033;49.994;21.992;2023-05-25T13:02:13;99757.79;;;18.09;68.85
50710;BME280;37033;49.994;21.992;2023-05-25T13:04:43;99758.13;;;18.10;68.88
50710;BME280;37033;49.994;21.992;2023-05-25T13:07:14;99761.59;;;18.09;69.00
50710;BME280;37033;49.994;21.992;2023-05-25T13:09:45;99759.58;;;18.03;68.60
50710;BME280;37033;49.994;21.992;2023-05-25T13:12:16;99756.96;;;17.98;69.00
50710;BME280;37033;49.994;21.992;2023-05-25T13:14:47;99756.83;;;18.03;69.27
50710;BME280;37033;49.994;21.992;2023-05-25T13:17:18;99754.05;;;18.08;69.14